createdAt,value
2018-08-28T00:00:39.160Z,23.89
2018-08-28T00:01:39.157Z,23.91
2018-08-28T00:02:39.142Z,23.92
2018-08-28T00:03:39.137Z,23.91
2018-08-28T00:04:39.128Z,23.94
2018-08-28T00:05:39.120Z,23.92
2018-08-28T00:06:39.117Z,23.92
2018-08-28T00:07:39.109Z,23.95
2018-08-28T00:08:39.099Z,23.92
2018-08-28T00:09:39.085Z,23.95
2018-08-28T00:10:39.081Z,23.92
2018-08-28T00:11:39.076Z,23.88
2018-08-28T00:12:39.073Z,23.82
2018-08-28T00:13:39.062Z,23.89
2018-08-28T00:14:39.052Z,23.94
2018-08-28T00:15:39.047Z,23.88
2018-08-28T00:16:39.039Z,23.95
2018-08-28T00:17:39.036Z,23.94
2018-08-28T00:18:39.024Z,23.91
2018-08-28T00:19:39.016Z,23.88
2018-08-28T00:20:39.012Z,23.94
2018-08-28T00:21:39.002Z,23.92
2018-08-28T00:22:39.016Z,23.85
2018-08-28T00:23:38.987Z,23.92
2018-08-28T00:24:38.977Z,23.94
2018-08-28T00:25:38.978Z,23.92
2018-08-28T00:26:38.965Z,23.94
2018-08-28T00:27:38.956Z,23.89
2018-08-28T00:28:38.950Z,23.91
2018-08-28T00:29:38.946Z,23.81
2018-08-28T00:30:38.937Z,23.92
2018-08-28T00:31:38.927Z,23.95
2018-08-28T00:32:38.921Z,23.85
2018-08-28T00:33:38.918Z,23.92
2018-08-28T00:34:38.905Z,23.91
2018-08-28T00:35:38.899Z,23.95
2018-08-28T00:36:38.887Z,23.88
2018-08-28T00:37:38.883Z,23.92
2018-08-28T00:38:38.876Z,23.88
2018-08-28T00:39:38.869Z,23.94
2018-08-28T00:40:38.860Z,23.79
2018-08-28T00:41:38.853Z,23.85
2018-08-28T00:42:38.844Z,23.85
2018-08-28T00:43:38.838Z,23.85
2018-08-28T00:44:38.832Z,23.84
2018-08-28T00:45:38.823Z,23.86
2018-08-28T00:46:38.820Z,23.86
2018-08-28T00:47:38.808Z,23.84
2018-08-28T00:48:38.802Z,23.85
2018-08-28T00:49:38.793Z,23.88
2018-08-28T00:50:38.787Z,23.81
2018-08-28T00:51:38.781Z,23.81
2018-08-28T00:52:38.770Z,23.84
2018-08-28T00:53:38.763Z,23.86
2018-08-28T00:54:38.754Z,23.85
2018-08-28T00:55:38.749Z,23.76
2018-08-28T00:56:38.742Z,23.81
2018-08-28T00:57:38.732Z,23.85
2018-08-28T00:58:38.725Z,23.74
2018-08-28T00:59:38.723Z,23.81
2018-08-28T01:00:38.706Z,23.77
2018-08-28T01:01:38.703Z,23.76
2018-08-28T01:02:38.692Z,23.82
2018-08-28T01:03:38.689Z,23.81
2018-08-28T01:04:38.685Z,23.77
2018-08-28T01:05:38.674Z,23.71
2018-08-28T01:06:38.667Z,23.82
2018-08-28T01:07:38.657Z,23.79
2018-08-28T01:08:38.654Z,23.84
2018-08-28T01:09:38.644Z,23.84
2018-08-28T01:10:38.635Z,23.77
2018-08-28T01:11:38.628Z,23.85
2018-08-28T01:12:38.624Z,23.81
2018-08-28T01:13:38.614Z,23.85
2018-08-28T01:14:38.637Z,23.76
2018-08-28T01:15:38.599Z,23.82
2018-08-28T01:16:38.593Z,23.77
2018-08-28T01:17:38.587Z,23.82
2018-08-28T01:18:38.575Z,23.82
2018-08-28T01:19:38.569Z,23.81
2018-08-28T01:20:38.560Z,23.86
2018-08-28T01:21:38.550Z,23.73
2018-08-28T01:22:38.548Z,23.81
2018-08-28T01:23:38.537Z,23.84
2018-08-28T01:24:38.533Z,23.79
2018-08-28T01:25:38.523Z,23.82
2018-08-28T01:26:38.521Z,23.76
2018-08-28T01:27:38.512Z,23.70
2018-08-28T01:28:38.499Z,23.76
2018-08-28T01:29:38.498Z,23.69
2018-08-28T01:30:38.491Z,23.74
2018-08-28T01:31:38.478Z,23.73
2018-08-28T01:32:38.471Z,23.79
2018-08-28T01:33:38.466Z,23.70
2018-08-28T01:34:38.454Z,23.79
2018-08-28T01:35:38.448Z,23.77
2018-08-28T01:36:38.441Z,23.73
2018-08-28T01:37:38.436Z,23.74
2018-08-28T01:38:38.427Z,23.66
2018-08-28T01:39:38.418Z,23.74
2018-08-28T01:40:38.406Z,23.76
2018-08-28T01:41:38.406Z,23.74
2018-08-28T01:42:38.394Z,23.76
2018-08-28T01:43:38.386Z,23.77
2018-08-28T01:44:38.384Z,23.71
2018-08-28T01:45:38.373Z,23.71
2018-08-28T01:46:38.363Z,23.69
2018-08-28T01:47:38.358Z,23.79
2018-08-28T01:48:38.362Z,23.76
2018-08-28T01:49:38.342Z,23.71
2018-08-28T01:50:38.334Z,23.73
2018-08-28T01:51:38.328Z,23.69
2018-08-28T01:52:38.323Z,23.70
2018-08-28T01:53:38.313Z,23.69
2018-08-28T01:54:38.306Z,23.71
2018-08-28T01:55:38.299Z,23.66
2018-08-28T01:56:38.299Z,23.70
2018-08-28T01:57:38.284Z,23.73
2018-08-28T01:58:38.305Z,23.71
2018-08-28T01:59:38.269Z,23.73
2018-08-28T02:00:38.262Z,23.69
2018-08-28T02:01:38.253Z,23.73
2018-08-28T02:02:38.245Z,23.73
2018-08-28T02:03:38.238Z,23.71
2018-08-28T02:04:38.230Z,23.73
2018-08-28T02:05:38.224Z,23.71
2018-08-28T02:06:38.216Z,23.71
2018-08-28T02:07:38.206Z,23.71
2018-08-28T02:08:38.199Z,23.73
2018-08-28T02:09:38.193Z,23.71
2018-08-28T02:10:38.185Z,23.73
2018-08-28T02:11:38.175Z,23.69
2018-08-28T02:12:38.169Z,23.73
2018-08-28T02:13:38.162Z,23.74
2018-08-28T02:14:38.153Z,23.70
2018-08-28T02:15:38.153Z,23.73
2018-08-28T02:16:38.142Z,23.76
2018-08-28T02:17:38.132Z,23.84
2018-08-28T02:18:38.124Z,23.67
2018-08-28T02:19:38.118Z,23.76
2018-08-28T02:20:38.107Z,23.69
2018-08-28T02:21:38.106Z,23.74
2018-08-28T02:22:38.092Z,23.74
2018-08-28T02:23:38.085Z,23.69
2018-08-28T02:24:38.078Z,23.77
2018-08-28T02:25:38.071Z,23.67
2018-08-28T02:26:38.066Z,23.69
2018-08-28T02:27:38.057Z,23.73
2018-08-28T02:28:38.048Z,23.73
2018-08-28T02:29:38.045Z,23.77
2018-08-28T02:30:38.033Z,23.64
2018-08-28T02:31:38.025Z,23.76
2018-08-28T02:32:38.019Z,23.74
2018-08-28T02:33:38.113Z,23.74
2018-08-28T02:34:38.043Z,23.62
2018-08-28T02:35:38.035Z,23.73
2018-08-28T02:36:38.019Z,23.74
2018-08-28T02:37:37.979Z,23.62
2018-08-28T02:38:37.993Z,23.76
2018-08-28T02:39:37.981Z,23.64
2018-08-28T02:40:37.971Z,23.73
2018-08-28T02:41:37.949Z,23.76
2018-08-28T02:42:37.942Z,23.76
2018-08-28T02:43:37.933Z,23.73
2018-08-28T02:44:37.927Z,23.70
2018-08-28T02:45:37.921Z,23.67
2018-08-28T02:46:37.913Z,23.66
2018-08-28T02:47:37.909Z,23.63
2018-08-28T02:48:37.900Z,23.55
2018-08-28T02:49:37.889Z,23.74
2018-08-28T02:50:37.880Z,23.66
2018-08-28T02:51:37.873Z,23.70
2018-08-28T02:52:37.867Z,23.76
2018-08-28T02:53:37.862Z,23.66
2018-08-28T02:54:37.850Z,23.64
2018-08-28T02:55:37.842Z,23.69
2018-08-28T02:56:37.834Z,23.63
2018-08-28T02:57:37.827Z,23.67
2018-08-28T02:58:37.817Z,23.71
2018-08-28T02:59:37.812Z,23.64
2018-08-28T03:00:37.805Z,23.66
2018-08-28T03:01:37.797Z,23.69
2018-08-28T03:02:37.790Z,23.64
2018-08-28T03:03:37.783Z,23.67
2018-08-28T03:04:37.774Z,23.70
2018-08-28T03:05:37.768Z,23.64
2018-08-28T03:06:37.759Z,23.66
2018-08-28T03:07:37.756Z,23.69
2018-08-28T03:08:37.745Z,23.63
2018-08-28T03:09:37.740Z,23.67
2018-08-28T03:10:37.725Z,23.58
2018-08-28T03:11:37.791Z,23.59
2018-08-28T03:12:37.716Z,23.58
2018-08-28T03:13:37.706Z,23.64
2018-08-28T03:14:37.698Z,23.63
2018-08-28T03:15:37.823Z,23.67
2018-08-28T03:16:37.680Z,23.66
2018-08-28T03:17:37.677Z,23.66
2018-08-28T03:18:37.668Z,23.62
2018-08-28T03:19:37.659Z,23.58
2018-08-28T03:20:37.652Z,23.63
2018-08-28T03:21:37.646Z,23.59
2018-08-28T03:22:37.631Z,23.58
2018-08-28T03:23:37.627Z,23.66
2018-08-28T03:24:37.625Z,23.59
2018-08-28T03:25:37.620Z,23.59
2018-08-28T03:26:37.610Z,23.55
2018-08-28T03:27:37.598Z,23.58
2018-08-28T03:28:37.592Z,23.59
2018-08-28T03:29:37.585Z,23.63
2018-08-28T03:30:37.576Z,23.55
2018-08-28T03:31:37.570Z,23.62
2018-08-28T03:32:37.560Z,23.55
2018-08-28T03:33:37.553Z,23.56
2018-08-28T03:34:37.544Z,23.54
2018-08-28T03:35:37.535Z,23.55
2018-08-28T03:36:37.530Z,23.56
2018-08-28T03:37:37.524Z,23.55
2018-08-28T03:38:37.512Z,23.56
2018-08-28T03:39:37.508Z,23.52
2018-08-28T03:40:37.498Z,23.55
2018-08-28T03:41:37.491Z,23.55
2018-08-28T03:42:37.487Z,23.58
2018-08-28T03:43:37.477Z,23.51
2018-08-28T03:44:37.531Z,23.58
2018-08-28T03:45:37.463Z,23.55
2018-08-28T03:46:37.453Z,23.52
2018-08-28T03:47:37.445Z,23.52
2018-08-28T03:48:37.438Z,23.55
2018-08-28T03:49:37.429Z,23.55
2018-08-28T03:50:37.432Z,23.51
2018-08-28T03:51:37.414Z,23.54
2018-08-28T03:52:37.406Z,23.56
2018-08-28T03:53:37.399Z,23.55
2018-08-28T03:54:37.391Z,23.54
2018-08-28T03:55:37.387Z,23.52
2018-08-28T03:56:37.379Z,23.52
2018-08-28T03:57:37.368Z,23.47
2018-08-28T03:58:37.360Z,23.52
2018-08-28T03:59:37.352Z,23.49
2018-08-28T04:00:37.344Z,23.49
2018-08-28T04:01:37.339Z,23.52
2018-08-28T04:02:37.328Z,23.48
2018-08-28T04:03:37.376Z,23.52
2018-08-28T04:04:37.316Z,23.52
2018-08-28T04:05:37.307Z,23.51
2018-08-28T04:06:37.303Z,23.56
2018-08-28T04:07:37.294Z,23.49
2018-08-28T04:08:37.285Z,23.54
2018-08-28T04:09:37.279Z,23.54
2018-08-28T04:10:37.270Z,23.51
2018-08-28T04:11:37.259Z,23.51
2018-08-28T04:12:37.247Z,23.54
2018-08-28T04:13:37.245Z,23.52
2018-08-28T04:14:37.237Z,23.52
2018-08-28T04:15:37.232Z,23.51
2018-08-28T04:16:37.222Z,23.49
2018-08-28T04:17:37.214Z,23.49
2018-08-28T04:18:37.209Z,23.45
2018-08-28T04:19:37.199Z,23.51
2018-08-28T04:20:37.194Z,23.51
2018-08-28T04:21:37.189Z,23.49
2018-08-28T04:22:37.219Z,23.49
2018-08-28T04:23:37.171Z,23.44
2018-08-28T04:24:37.163Z,23.51
2018-08-28T04:25:37.155Z,23.40
2018-08-28T04:26:37.143Z,23.54
2018-08-28T04:27:37.142Z,23.45
2018-08-28T04:28:37.137Z,23.45
2018-08-28T04:29:37.123Z,23.44
2018-08-28T04:30:37.209Z,23.45
2018-08-28T04:31:37.106Z,23.47
2018-08-28T04:32:37.105Z,23.47
2018-08-28T04:33:37.093Z,23.52
2018-08-28T04:34:37.086Z,23.45
2018-08-28T04:35:37.080Z,23.39
2018-08-28T04:36:37.069Z,23.37
2018-08-28T04:37:37.063Z,23.45
2018-08-28T04:38:37.054Z,23.47
2018-08-28T04:39:37.046Z,23.44
2018-08-28T04:40:37.039Z,23.39
2018-08-28T04:41:37.032Z,23.42
2018-08-28T04:42:37.022Z,23.44
2018-08-28T04:43:37.014Z,23.39
2018-08-28T04:44:37.009Z,23.40
2018-08-28T04:45:37.000Z,23.44
2018-08-28T04:46:36.993Z,23.51
2018-08-28T04:47:36.998Z,23.47
2018-08-28T04:48:37.035Z,23.47
2018-08-28T04:49:36.976Z,23.54
2018-08-28T04:50:36.965Z,23.54
2018-08-28T04:51:36.956Z,23.54
2018-08-28T04:52:36.949Z,23.54
2018-08-28T04:53:36.945Z,23.54
2018-08-28T04:54:36.931Z,23.58
2018-08-28T04:55:36.925Z,23.58
2018-08-28T04:56:36.916Z,23.58
2018-08-28T04:57:36.911Z,23.55
2018-08-28T04:58:36.903Z,23.58
2018-08-28T04:59:36.893Z,23.63
2018-08-28T05:00:36.921Z,23.67
2018-08-28T05:01:36.890Z,23.59
2018-08-28T05:02:36.871Z,23.63
2018-08-28T05:03:36.858Z,23.64
2018-08-28T05:04:36.855Z,23.64
2018-08-28T05:05:36.848Z,23.62
2018-08-28T05:06:36.845Z,23.64
2018-08-28T05:07:36.834Z,23.64
2018-08-28T05:08:36.825Z,23.71
2018-08-28T05:09:36.818Z,23.64
2018-08-28T05:10:36.808Z,23.64
2018-08-28T05:11:36.855Z,23.63
2018-08-28T05:12:36.800Z,23.70
2018-08-28T05:13:36.788Z,23.70
2018-08-28T05:14:36.778Z,23.62
2018-08-28T05:15:36.771Z,23.64
2018-08-28T05:16:36.761Z,23.63
2018-08-28T05:17:36.755Z,23.66
2018-08-28T05:18:36.753Z,23.70
2018-08-28T05:19:36.741Z,23.70
2018-08-28T05:20:36.734Z,23.69
2018-08-28T05:21:36.726Z,23.62
2018-08-28T05:22:36.718Z,23.69
2018-08-28T05:23:36.710Z,23.69
2018-08-28T05:24:36.702Z,23.64
2018-08-28T05:25:36.697Z,23.67
2018-08-28T05:26:36.690Z,23.67
2018-08-28T05:27:36.678Z,23.66
2018-08-28T05:28:36.672Z,23.69
2018-08-28T05:29:36.725Z,23.59
2018-08-28T05:30:36.784Z,23.63
2018-08-28T05:31:36.651Z,23.67
2018-08-28T05:32:36.641Z,23.64
2018-08-28T05:33:36.633Z,23.69
2018-08-28T05:34:36.628Z,23.66
2018-08-28T05:35:36.618Z,23.73
2018-08-28T05:36:36.610Z,23.76
2018-08-28T05:37:36.606Z,23.76
2018-08-28T05:38:36.596Z,23.69
2018-08-28T05:39:36.587Z,23.73
2018-08-28T05:40:36.581Z,23.70
2018-08-28T05:41:36.573Z,23.64
2018-08-28T05:42:36.563Z,23.70
2018-08-28T05:43:36.556Z,23.69
2018-08-28T05:44:36.556Z,23.66
2018-08-28T05:45:36.548Z,23.76
2018-08-28T05:46:36.533Z,23.74
2018-08-28T05:47:36.526Z,23.70
2018-08-28T05:48:36.519Z,23.66
2018-08-28T05:49:36.598Z,23.76
2018-08-28T05:50:36.507Z,23.73
2018-08-28T05:51:36.496Z,23.66
2018-08-28T05:52:36.488Z,23.70
2018-08-28T05:53:36.482Z,23.73
2018-08-28T05:54:36.474Z,23.81
2018-08-28T05:55:36.463Z,23.70
2018-08-28T05:56:36.459Z,23.73
2018-08-28T05:57:36.458Z,23.70
2018-08-28T05:58:36.442Z,23.76
2018-08-28T05:59:36.433Z,23.71
2018-08-28T06:00:36.430Z,23.67
2018-08-28T06:01:36.419Z,23.64
2018-08-28T06:02:36.412Z,23.77
2018-08-28T06:03:36.509Z,23.73
2018-08-28T06:04:36.400Z,23.73
2018-08-28T06:05:36.441Z,23.79
2018-08-28T06:06:36.385Z,23.66
2018-08-28T06:07:36.376Z,23.69
2018-08-28T06:08:36.366Z,23.73
2018-08-28T06:09:36.361Z,23.71
2018-08-28T06:10:36.350Z,23.76
2018-08-28T06:11:36.343Z,23.74
2018-08-28T06:12:36.339Z,23.71
2018-08-28T06:13:36.329Z,23.73
2018-08-28T06:14:36.372Z,23.64
2018-08-28T06:15:36.316Z,23.70
2018-08-28T06:16:36.309Z,23.70
2018-08-28T06:17:36.304Z,23.69
2018-08-28T06:18:36.291Z,23.71
2018-08-28T06:19:36.292Z,23.74
2018-08-28T06:20:36.276Z,23.77
2018-08-28T06:21:36.270Z,23.66
2018-08-28T06:22:36.267Z,23.73
2018-08-28T06:23:36.254Z,23.76
2018-08-28T06:24:36.249Z,23.74
2018-08-28T06:25:36.239Z,23.70
2018-08-28T06:26:36.277Z,23.69
2018-08-28T06:27:36.226Z,23.69
2018-08-28T06:28:36.221Z,23.76
2018-08-28T06:29:36.210Z,23.71
2018-08-28T06:30:36.205Z,23.71
2018-08-28T06:31:36.198Z,23.69
2018-08-28T06:32:36.188Z,23.71
2018-08-28T06:33:36.182Z,23.84
2018-08-28T06:34:36.176Z,23.70
2018-08-28T06:35:36.171Z,23.77
2018-08-28T06:36:36.158Z,23.71
2018-08-28T06:37:36.152Z,23.79
2018-08-28T06:38:36.143Z,23.76
2018-08-28T06:39:36.134Z,23.77
2018-08-28T06:40:36.128Z,23.81
2018-08-28T06:41:36.120Z,23.82
2018-08-28T06:42:36.111Z,23.77
2018-08-28T06:43:36.183Z,23.84
2018-08-28T06:44:36.099Z,23.81
2018-08-28T06:45:36.092Z,23.85
2018-08-28T06:46:36.079Z,23.88
2018-08-28T06:47:36.076Z,23.88
2018-08-28T06:48:36.072Z,23.92
2018-08-28T06:49:36.161Z,23.96
2018-08-28T06:50:36.054Z,23.95
2018-08-28T06:51:36.046Z,23.92
2018-08-28T06:52:36.040Z,23.92
2018-08-28T06:53:36.049Z,23.99
2018-08-28T06:54:36.025Z,24.06
2018-08-28T06:55:36.025Z,24.01
2018-08-28T06:56:36.013Z,24.10
2018-08-28T06:57:36.004Z,24.18
2018-08-28T06:58:35.994Z,24.16
2018-08-28T06:59:35.987Z,24.13
2018-08-28T07:00:35.981Z,24.11
2018-08-28T07:01:35.973Z,24.18
2018-08-28T07:02:35.965Z,24.26
2018-08-28T07:03:35.959Z,24.26
2018-08-28T07:04:35.952Z,24.32
2018-08-28T07:05:35.945Z,24.38
2018-08-28T07:06:35.936Z,24.34
2018-08-28T07:07:35.930Z,24.43
2018-08-28T07:08:35.926Z,24.50
2018-08-28T07:09:35.918Z,24.40
2018-08-28T07:10:35.908Z,24.46
2018-08-28T07:11:35.901Z,24.46
2018-08-28T07:12:35.894Z,24.48
2018-08-28T07:13:35.888Z,24.46
2018-08-28T07:14:35.876Z,24.47
2018-08-28T07:15:35.879Z,24.48
2018-08-28T07:16:35.863Z,24.51
2018-08-28T07:17:35.857Z,24.53
2018-08-28T07:18:35.857Z,24.55
2018-08-28T07:19:35.848Z,24.68
2018-08-28T07:20:35.834Z,24.65
2018-08-28T07:21:35.831Z,24.69
2018-08-28T07:22:35.822Z,24.74
2018-08-28T07:23:35.819Z,24.65
2018-08-28T07:24:35.809Z,24.65
2018-08-28T07:25:35.810Z,24.75
2018-08-28T07:26:35.793Z,24.68
2018-08-28T07:27:35.786Z,24.78
2018-08-28T07:28:35.785Z,24.82
2018-08-28T07:29:35.772Z,24.82
2018-08-28T07:30:35.768Z,24.82
2018-08-28T07:31:35.778Z,24.88
2018-08-28T07:32:35.751Z,24.88
2018-08-28T07:33:35.744Z,24.86
2018-08-28T07:34:35.736Z,24.85
2018-08-28T07:35:35.733Z,24.94
2018-08-28T07:36:35.724Z,24.96
2018-08-28T07:37:35.838Z,24.97
2018-08-28T07:38:35.725Z,24.93
2018-08-28T07:39:35.724Z,24.96
2018-08-28T07:40:35.704Z,25.09
2018-08-28T07:41:35.704Z,25.03
2018-08-28T07:42:35.683Z,25.04
2018-08-28T07:43:35.674Z,25.01
2018-08-28T07:44:35.668Z,25.01
2018-08-28T07:45:35.662Z,25.12
2018-08-28T07:46:35.653Z,25.14
2018-08-28T07:47:35.649Z,25.15
2018-08-28T07:48:35.640Z,25.18
2018-08-28T07:49:35.634Z,25.22
2018-08-28T07:50:35.628Z,25.26
2018-08-28T07:51:35.621Z,25.33
2018-08-28T07:52:35.615Z,25.30
2018-08-28T07:53:35.607Z,25.30
2018-08-28T07:54:35.600Z,25.25
2018-08-28T07:55:35.593Z,25.25
2018-08-28T07:56:35.587Z,25.26
2018-08-28T07:57:35.581Z,25.34
2018-08-28T07:58:35.572Z,25.34
2018-08-28T07:59:35.565Z,25.39
2018-08-28T08:00:35.563Z,25.39
2018-08-28T08:01:35.661Z,25.37
2018-08-28T08:02:35.545Z,25.37
2018-08-28T08:03:35.545Z,25.54
2018-08-28T08:04:35.537Z,25.52
2018-08-28T08:05:35.530Z,25.46
2018-08-28T08:06:35.519Z,25.46
2018-08-28T08:07:35.509Z,25.49
2018-08-28T08:08:35.509Z,25.59
2018-08-28T08:09:35.500Z,25.56
2018-08-28T08:10:35.610Z,25.58
2018-08-28T08:11:35.494Z,25.63
2018-08-28T08:12:35.481Z,25.62
2018-08-28T08:13:35.474Z,25.66
2018-08-28T08:14:35.465Z,25.59
2018-08-28T08:15:35.465Z,25.73
2018-08-28T08:16:35.454Z,25.73
2018-08-28T08:17:35.450Z,25.78
2018-08-28T08:18:35.448Z,25.83
2018-08-28T08:19:35.434Z,25.80
2018-08-28T08:20:35.427Z,25.85
2018-08-28T08:21:35.423Z,25.86
2018-08-28T08:22:35.414Z,25.89
2018-08-28T08:23:35.406Z,25.96
2018-08-28T08:24:35.405Z,25.88
2018-08-28T08:25:35.402Z,25.95
2018-08-28T08:26:35.387Z,25.96
2018-08-28T08:27:35.385Z,25.98
2018-08-28T08:28:35.377Z,25.98
2018-08-28T08:29:35.369Z,26.06
2018-08-28T08:30:35.364Z,26.04
2018-08-28T08:31:35.357Z,26.03
2018-08-28T08:32:35.350Z,26.03
2018-08-28T08:33:35.348Z,26.16
2018-08-28T08:34:35.338Z,26.04
2018-08-28T08:35:35.338Z,26.10
2018-08-28T08:36:35.328Z,26.18
2018-08-28T08:37:35.314Z,26.10
2018-08-28T08:38:35.313Z,26.18
2018-08-28T08:39:35.306Z,26.15
2018-08-28T08:40:35.301Z,26.29
2018-08-28T08:41:35.299Z,26.29
2018-08-28T08:42:35.290Z,26.30
2018-08-28T08:43:35.284Z,26.33
2018-08-28T08:44:35.275Z,26.30
2018-08-28T08:45:35.270Z,26.30
2018-08-28T08:46:35.264Z,26.39
2018-08-28T08:47:35.256Z,26.44
2018-08-28T08:48:35.253Z,26.41
2018-08-28T08:49:35.248Z,26.48
2018-08-28T08:50:35.241Z,26.49
2018-08-28T08:51:35.232Z,26.48
2018-08-28T08:52:35.226Z,26.51
2018-08-28T08:53:35.220Z,26.52
2018-08-28T08:54:35.212Z,26.49
2018-08-28T08:55:35.209Z,26.61
2018-08-28T08:56:35.204Z,26.56
2018-08-28T08:57:35.198Z,26.64
2018-08-28T08:58:35.190Z,26.60
2018-08-28T08:59:35.184Z,26.60
2018-08-28T09:00:35.178Z,26.66
2018-08-28T09:01:35.172Z,26.67
2018-08-28T09:02:35.166Z,26.74
2018-08-28T09:03:35.162Z,26.76
2018-08-28T09:04:35.158Z,26.76
2018-08-28T09:05:35.154Z,26.83
2018-08-28T09:06:35.147Z,26.73
2018-08-28T09:07:35.138Z,26.79
2018-08-28T09:08:35.132Z,26.79
2018-08-28T09:09:35.128Z,26.83
2018-08-28T09:10:35.117Z,26.89
2018-08-28T09:11:35.113Z,26.83
2018-08-28T09:12:35.109Z,26.91
2018-08-28T09:13:35.164Z,26.86
2018-08-28T09:14:35.095Z,26.82
2018-08-28T09:15:35.090Z,26.89
2018-08-28T09:16:35.086Z,26.93
2018-08-28T09:17:35.079Z,26.89
2018-08-28T09:18:35.075Z,26.93
2018-08-28T09:19:35.068Z,26.98
2018-08-28T09:20:35.062Z,26.98
2018-08-28T09:21:35.066Z,27.00
2018-08-28T09:22:35.054Z,27.04
2018-08-28T09:23:35.044Z,27.05
2018-08-28T09:24:35.040Z,26.98
2018-08-28T09:25:35.031Z,27.07
2018-08-28T09:26:35.029Z,27.11
2018-08-28T09:27:35.021Z,27.19
2018-08-28T09:28:35.016Z,27.10
2018-08-28T09:29:35.013Z,27.11
2018-08-28T09:30:35.004Z,27.18
2018-08-28T09:31:35.013Z,27.16
2018-08-28T09:32:34.992Z,27.16
2018-08-28T09:33:34.993Z,27.26
2018-08-28T09:34:34.983Z,27.23
2018-08-28T09:35:34.976Z,27.22
2018-08-28T09:36:34.970Z,27.16
2018-08-28T09:37:34.967Z,27.23
2018-08-28T09:38:34.987Z,27.26
2018-08-28T09:39:34.960Z,27.22
2018-08-28T09:40:34.949Z,27.22
2018-08-28T09:41:34.944Z,27.20
2018-08-28T09:42:34.937Z,27.26
2018-08-28T09:43:34.932Z,27.25
2018-08-28T09:44:34.925Z,27.23
2018-08-28T09:45:35.029Z,27.26
2018-08-28T09:46:34.921Z,27.29
2018-08-28T09:47:34.910Z,27.34
2018-08-28T09:48:34.995Z,27.20
2018-08-28T09:49:34.899Z,27.26
2018-08-28T09:50:34.916Z,27.38
2018-08-28T09:51:34.895Z,27.29
2018-08-28T09:52:34.883Z,27.30
2018-08-28T09:53:34.878Z,27.34
2018-08-28T09:54:34.872Z,27.34
2018-08-28T09:55:34.871Z,27.43
2018-08-28T09:56:34.899Z,27.37
2018-08-28T09:57:34.855Z,27.43
2018-08-28T09:58:34.850Z,27.45
2018-08-28T09:59:34.851Z,27.38
2018-08-28T10:00:34.843Z,27.47
2018-08-28T10:01:34.836Z,27.45
2018-08-28T10:02:34.828Z,27.44
2018-08-28T10:03:34.831Z,27.43
2018-08-28T10:04:34.819Z,27.44
2018-08-28T10:05:34.814Z,27.44
2018-08-28T10:06:34.807Z,27.58
2018-08-28T10:07:34.802Z,27.58
2018-08-28T10:08:34.798Z,27.55
2018-08-28T10:09:34.794Z,27.60
2018-08-28T10:10:34.787Z,27.50
2018-08-28T10:11:34.780Z,27.57
2018-08-28T10:12:34.776Z,27.61
2018-08-28T10:13:34.770Z,27.55
2018-08-28T10:14:34.766Z,27.61
2018-08-28T10:15:34.760Z,27.58
2018-08-28T10:16:34.783Z,27.61
2018-08-28T10:17:34.752Z,27.66
2018-08-28T10:18:34.747Z,27.66
2018-08-28T10:19:34.741Z,27.60
2018-08-28T10:20:34.734Z,27.61
2018-08-28T10:21:34.730Z,27.71
2018-08-28T10:22:34.725Z,27.66
2018-08-28T10:23:34.720Z,27.71
2018-08-28T10:24:34.714Z,27.73
2018-08-28T10:25:34.708Z,27.68
2018-08-28T10:26:34.703Z,27.67
2018-08-28T10:27:34.697Z,27.67
2018-08-28T10:28:34.694Z,27.68
2018-08-28T10:29:34.686Z,27.72
2018-08-28T10:30:34.684Z,27.67
2018-08-28T10:31:34.680Z,27.73
2018-08-28T10:32:34.680Z,27.67
2018-08-28T10:33:34.666Z,27.82
2018-08-28T10:34:34.662Z,27.78
2018-08-28T10:35:34.657Z,27.76
2018-08-28T10:36:34.646Z,27.78
2018-08-28T10:37:34.643Z,27.68
2018-08-28T10:38:34.640Z,27.75
2018-08-28T10:39:34.635Z,27.71
2018-08-28T10:40:34.641Z,27.73
2018-08-28T10:41:34.623Z,27.78
2018-08-28T10:42:34.619Z,27.75
2018-08-28T10:43:34.613Z,27.79
2018-08-28T10:44:34.606Z,27.76
2018-08-28T10:45:34.605Z,27.76
2018-08-28T10:46:34.677Z,27.78
2018-08-28T10:47:34.607Z,27.79
2018-08-28T10:48:34.588Z,27.75
2018-08-28T10:49:34.590Z,27.72
2018-08-28T10:50:34.577Z,27.79
2018-08-28T10:51:34.571Z,27.73
2018-08-28T10:52:34.569Z,27.81
2018-08-28T10:53:34.564Z,27.83
2018-08-28T10:54:34.553Z,27.76
2018-08-28T10:55:34.550Z,27.78
2018-08-28T10:56:34.541Z,27.76
2018-08-28T10:57:34.542Z,27.81
2018-08-28T10:58:34.586Z,27.79
2018-08-28T10:59:34.531Z,27.82
2018-08-28T11:00:34.527Z,27.79
2018-08-28T11:01:34.519Z,27.79
2018-08-28T11:02:34.543Z,27.79
2018-08-28T11:03:34.530Z,27.81
2018-08-28T11:04:34.574Z,27.81
2018-08-28T11:05:34.512Z,27.78
2018-08-28T11:06:34.504Z,27.82
2018-08-28T11:07:34.498Z,27.81
2018-08-28T11:08:34.528Z,27.81
2018-08-28T11:09:34.483Z,27.81
2018-08-28T11:10:34.476Z,27.73
2018-08-28T11:11:34.469Z,27.81
2018-08-28T11:12:34.466Z,27.76
2018-08-28T11:13:34.461Z,27.75
2018-08-28T11:14:34.452Z,27.76
2018-08-28T11:15:34.450Z,27.76
2018-08-28T11:16:34.448Z,27.81
2018-08-28T11:17:34.444Z,27.79
2018-08-28T11:18:34.433Z,27.72
2018-08-28T11:19:34.431Z,27.78
2018-08-28T11:20:34.424Z,27.81
2018-08-28T11:21:34.425Z,27.68
2018-08-28T11:22:34.413Z,27.68
2018-08-28T11:23:34.408Z,27.68
2018-08-28T11:24:34.405Z,27.67
2018-08-28T11:25:34.399Z,27.66
2018-08-28T11:26:34.392Z,27.76
2018-08-28T11:27:34.389Z,27.66
2018-08-28T11:28:34.382Z,27.68
2018-08-28T11:29:34.373Z,27.67
2018-08-28T11:30:34.365Z,27.67
2018-08-28T11:31:34.371Z,27.71
2018-08-28T11:32:34.361Z,27.67
2018-08-28T11:33:34.362Z,27.66
2018-08-28T11:34:34.352Z,27.71
2018-08-28T11:35:34.357Z,27.73
2018-08-28T11:36:34.340Z,27.66
2018-08-28T11:37:34.339Z,27.66
2018-08-28T11:38:34.521Z,27.66
2018-08-28T11:39:34.325Z,27.66
2018-08-28T11:40:34.321Z,27.61
2018-08-28T11:41:34.318Z,27.61
2018-08-28T11:42:34.311Z,27.63
2018-08-28T11:43:34.306Z,27.64
2018-08-28T11:44:34.305Z,27.63
2018-08-28T11:45:34.296Z,27.53
2018-08-28T11:46:34.289Z,27.50
2018-08-28T11:47:34.284Z,27.53
2018-08-28T11:48:34.280Z,27.58
2018-08-28T11:49:34.272Z,27.60
2018-08-28T11:50:34.268Z,27.55
2018-08-28T11:51:34.268Z,27.55
2018-08-28T11:52:34.295Z,27.58
2018-08-28T11:53:34.255Z,27.53
2018-08-28T11:54:34.252Z,27.47
2018-08-28T11:55:34.244Z,27.47
2018-08-28T11:56:34.236Z,27.52
2018-08-28T11:57:34.232Z,27.53
2018-08-28T11:58:34.230Z,27.58
2018-08-28T11:59:34.223Z,27.48
2018-08-28T12:00:34.217Z,27.47
2018-08-28T12:01:34.212Z,27.48
2018-08-28T12:02:34.214Z,27.50
2018-08-28T12:03:34.205Z,27.44
2018-08-28T12:04:34.199Z,27.47
2018-08-28T12:05:34.192Z,27.53
2018-08-28T12:06:34.249Z,27.43
2018-08-28T12:07:34.233Z,27.52
2018-08-28T12:08:34.177Z,27.47
2018-08-28T12:09:34.170Z,27.41
2018-08-28T12:10:34.167Z,27.48
2018-08-28T12:11:34.169Z,27.45
2018-08-28T12:12:34.162Z,27.47
2018-08-28T12:13:34.149Z,27.44
2018-08-28T12:14:34.143Z,27.40
2018-08-28T12:15:34.139Z,27.48
2018-08-28T12:16:34.134Z,27.48
2018-08-28T12:17:34.131Z,27.45
2018-08-28T12:18:34.123Z,27.48
2018-08-28T12:19:34.173Z,27.48
2018-08-28T12:20:34.152Z,27.45
2018-08-28T12:21:34.113Z,27.43
2018-08-28T12:22:34.106Z,27.48
2018-08-28T12:23:34.097Z,27.48
2018-08-28T12:24:34.086Z,27.35
2018-08-28T12:25:34.086Z,27.48
2018-08-28T12:26:34.099Z,27.35
2018-08-28T12:27:34.075Z,27.47
2018-08-28T12:28:34.073Z,27.41
2018-08-28T12:29:34.110Z,27.35
2018-08-28T12:30:34.063Z,27.47
2018-08-28T12:31:34.056Z,27.38
2018-08-28T12:32:34.051Z,27.38
2018-08-28T12:33:34.044Z,27.38
2018-08-28T12:34:34.039Z,27.29
2018-08-28T12:35:34.034Z,27.37
2018-08-28T12:36:34.082Z,27.30
2018-08-28T12:37:34.025Z,27.37
2018-08-28T12:38:34.029Z,27.33
2018-08-28T12:39:34.035Z,27.33
2018-08-28T12:40:34.009Z,27.33
2018-08-28T12:41:34.008Z,27.34
2018-08-28T12:42:34.001Z,27.37
2018-08-28T12:43:33.991Z,27.34
2018-08-28T12:44:33.985Z,27.28
2018-08-28T12:45:33.988Z,27.30
2018-08-28T12:46:33.977Z,27.23
2018-08-28T12:47:33.971Z,27.20
2018-08-28T12:48:33.971Z,27.26
2018-08-28T12:49:33.959Z,27.22
2018-08-28T12:50:33.953Z,27.22
2018-08-28T12:51:33.948Z,27.25
2018-08-28T12:52:33.943Z,27.23